< < Back
Terminal Aerodrome Forecast


Current Version              Previous Versions:   1  2  3  4  5  6  7  8  9  

Terminal Aerodrome Forecast

259
FTUS44 KMRX 010520
TAFCHA
TAF
KCHA 010520Z 0106/0206 02003KT P6SM SKC
     FM011400 02010KT P6SM FEW060
     FM020200 00000KT P6SM SKC=

Latest METAR

397
SAUS80 KWBC 011400 RRE
MTRCHA
METAR KCHA 011353Z 03008KT 10SM FEW100 SCT150 SCT250 26/17 A3003 RMK AO2
SLP162 T02610167


USA.gov is the U.S. government's official web portal to all federal, state and local government web resources and services.